sensor_id;sensor_type;location;lat;lon;timestamp;pressure;altitude;pressure_sealevel;temperature;humidity
30110;BME280;14965;50.660;13.226;2023-07-20T00:01:34;94590.97;;;14.85;99.49
30110;BME280;14965;50.660;13.226;2023-07-20T00:04:00;94588.00;;;14.89;99.44
30110;BME280;14965;50.660;13.226;2023-07-20T00:06:26;94596.19;;;14.92;99.59
30110;BME280;14965;50.660;13.226;2023-07-20T00:08:52;94593.50;;;14.98;99.84
30110;BME280;14965;50.660;13.226;2023-07-20T00:11:18;94584.50;;;15.03;100.00
30110;BME280;14965;50.660;13.226;2023-07-20T00:13:44;94585.59;;;15.06;100.00
30110;BME280;14965;50.660;13.226;2023-07-20T00:16:10;94586.34;;;15.06;99.96
30110;BME280;14965;50.660;13.226;2023-07-20T00:18:37;94590.41;;;14.96;99.83
30110;BME280;14965;50.660;13.226;2023-07-20T00:21:03;94577.72;;;14.80;99.85
30110;BME280;14965;50.660;13.226;2023-07-20T00:23:29;94583.97;;;14.66;99.83
30110;BME280;14965;50.660;13.226;2023-07-20T00:25:55;94583.50;;;14.67;100.00
30110;BME280;14965;50.660;13.226;2023-07-20T00:28:21;94577.59;;;14.75;100.00
30110;BME280;14965;50.660;13.226;2023-07-20T00:30:47;94578.94;;;14.79;99.89
30110;BME280;14965;50.660;13.226;2023-07-20T00:33:16;94576.13;;;14.88;99.78
30110;BME280;14965;50.660;13.226;2023-07-20T00:35:44;94572.97;;;14.95;99.82
30110;BME280;14965;50.660;13.226;2023-07-20T00:38:10;94562.44;;;15.00;99.92
30110;BME280;14965;50.660;13.226;2023-07-20T00:40:36;94567.81;;;15.03;99.79
30110;BME280;14965;50.660;13.226;2023-07-20T00:43:02;94571.84;;;15.02;99.98
30110;BME280;14965;50.660;13.226;2023-07-20T00:45:29;94568.75;;;15.00;100.00
30110;BME280;14965;50.660;13.226;2023-07-20T00:47:57;94557.47;;;15.04;100.00
30110;BME280;14965;50.660;13.226;2023-07-20T00:50:24;94568.13;;;15.05;99.97
30110;BME280;14965;50.660;13.226;2023-07-20T00:52:51;94576.16;;;15.03;99.89
30110;BME280;14965;50.660;13.226;2023-07-20T00:55:18;94571.84;;;15.02;99.74
30110;BME280;14965;50.660;13.226;2023-07-20T00:57:44;94577.69;;;15.04;99.82
30110;BME280;14965;50.660;13.226;2023-07-20T01:00:12;94571.69;;;15.06;99.74
30110;BME280;14965;50.660;13.226;2023-07-20T01:02:38;94574.91;;;15.04;99.75
30110;BME280;14965;50.660;13.226;2023-07-20T01:05:06;94576.16;;;15.03;99.79
30110;BME280;14965;50.660;13.226;2023-07-20T01:07:37;94582.66;;;15.00;99.67
30110;BME280;14965;50.660;13.226;2023-07-20T01:10:15;94586.88;;;14.95;99.80
30110;BME280;14965;50.660;13.226;2023-07-20T01:12:47;94573.13;;;14.92;100.00
30110;BME280;14965;50.660;13.226;2023-07-20T01:15:14;94581.47;;;14.92;100.00
30110;BME280;14965;50.660;13.226;2023-07-20T01:17:40;94574.38;;;14.91;100.00
30110;BME280;14965;50.660;13.226;2023-07-20T01:20:09;94576.41;;;14.90;100.00
30110;BME280;14965;50.660;13.226;2023-07-20T01:23:14;94576.88;;;14.89;100.00
30110;BME280;14965;50.660;13.226;2023-07-20T01:26:09;94572.88;;;14.90;100.00
30110;BME280;14965;50.660;13.226;2023-07-20T01:29:07;94567.00;;;14.88;100.00
30110;BME280;14965;50.660;13.226;2023-07-20T01:31:39;94571.97;;;14.84;100.00
30110;BME280;14965;50.660;13.226;2023-07-20T01:34:08;94572.94;;;14.81;100.00
30110;BME280;14965;50.660;13.226;2023-07-20T01:36:38;94569.66;;;14.82;100.00
30110;BME280;14965;50.660;13.226;2023-07-20T01:39:06;94569.97;;;14.84;100.00
30110;BME280;14965;50.660;13.226;2023-07-20T01:41:33;94569.31;;;14.89;100.00
30110;BME280;14965;50.660;13.226;2023-07-20T01:44:00;94569.41;;;14.95;100.00
30110;BME280;14965;50.660;13.226;2023-07-20T01:46:26;94562.91;;;14.98;99.91
30110;BME280;14965;50.660;13.226;2023-07-20T01:48:54;94560.63;;;14.97;99.76
30110;BME280;14965;50.660;13.226;2023-07-20T01:51:20;94562.59;;;14.96;99.76
30110;BME280;14965;50.660;13.226;2023-07-20T01:53:46;94573.13;;;14.92;99.46
30110;BME280;14965;50.660;13.226;2023-07-20T01:56:12;94576.13;;;14.88;99.45
30110;BME280;14965;50.660;13.226;2023-07-20T01:58:38;94571.03;;;14.87;99.65
30110;BME280;14965;50.660;13.226;2023-07-20T02:01:04;94567.97;;;14.85;99.91
30110;BME280;14965;50.660;13.226;2023-07-20T02:03:30;94572.28;;;14.86;100.00
30110;BME280;14965;50.660;13.226;2023-07-20T02:05:57;94575.63;;;14.90;100.00
30110;BME280;14965;50.660;13.226;2023-07-20T02:08:23;94574.97;;;14.95;100.00
30110;BME280;14965;50.660;13.226;2023-07-20T02:10:49;94578.84;;;14.98;100.00
30110;BME280;14965;50.660;13.226;2023-07-20T02:13:15;94570.50;;;14.98;100.00
30110;BME280;14965;50.660;13.226;2023-07-20T02:15:41;94580.84;;;14.97;100.00
30110;BME280;14965;50.660;13.226;2023-07-20T02:18:07;94582.88;;;14.97;100.00
30110;BME280;14965;50.660;13.226;2023-07-20T02:20:33;94573.13;;;14.92;100.00
30110;BME280;14965;50.660;13.226;2023-07-20T02:23:01;94583.50;;;14.91;100.00
30110;BME280;14965;50.660;13.226;2023-07-20T02:25:27;94584.47;;;14.88;100.00
30110;BME280;14965;50.660;13.226;2023-07-20T02:27:53;94579.38;;;14.87;100.00
30110;BME280;14965;50.660;13.226;2023-07-20T02:30:18;94580.88;;;14.88;100.00
30110;BME280;14965;50.660;13.226;2023-07-20T02:32:44;94584.47;;;14.88;100.00
30110;BME280;14965;50.660;13.226;2023-07-20T02:35:10;94589.22;;;14.88;100.00
30110;BME280;14965;50.660;13.226;2023-07-20T02:37:36;94576.00;;;14.83;100.00
30110;BME280;14965;50.660;13.226;2023-07-20T02:40:05;94580.31;;;14.84;100.00
30110;BME280;14965;50.660;13.226;2023-07-20T02:42:31;94588.63;;;14.84;100.00
30110;BME280;14965;50.660;13.226;2023-07-20T02:44:57;94587.78;;;14.78;99.34
30110;BME280;14965;50.660;13.226;2023-07-20T02:47:23;94591.47;;;14.75;99.06
30110;BME280;14965;50.660;13.226;2023-07-20T02:49:50;94592.44;;;14.72;98.97
30110;BME280;14965;50.660;13.226;2023-07-20T02:52:16;94590.88;;;14.70;98.73
30110;BME280;14965;50.660;13.226;2023-07-20T02:54:41;94596.44;;;14.70;98.76
30110;BME280;14965;50.660;13.226;2023-07-20T02:57:09;94593.97;;;14.73;98.53
30110;BME280;14965;50.660;13.226;2023-07-20T02:59:35;94594.25;;;14.75;98.52
30110;BME280;14965;50.660;13.226;2023-07-20T03:02:00;94594.75;;;14.73;98.39
30110;BME280;14965;50.660;13.226;2023-07-20T03:04:26;94591.47;;;14.75;98.28
30110;BME280;14965;50.660;13.226;2023-07-20T03:06:52;94592.25;;;14.75;98.38
30110;BME280;14965;50.660;13.226;2023-07-20T03:09:18;94602.31;;;14.73;98.06
30110;BME280;14965;50.660;13.226;2023-07-20T03:11:45;94596.44;;;14.70;97.99
30110;BME280;14965;50.660;13.226;2023-07-20T03:14:12;94602.66;;;14.65;97.75
30110;BME280;14965;50.660;13.226;2023-07-20T03:16:38;94598.22;;;14.59;97.92
30110;BME280;14965;50.660;13.226;2023-07-20T03:19:04;94600.41;;;14.55;98.06
30110;BME280;14965;50.660;13.226;2023-07-20T03:21:30;94598.56;;;14.52;98.06
30110;BME280;14965;50.660;13.226;2023-07-20T03:23:56;94596.25;;;14.50;98.10
30110;BME280;14965;50.660;13.226;2023-07-20T03:26:22;94602.28;;;14.49;97.76
30110;BME280;14965;50.660;13.226;2023-07-20T03:28:48;94601.97;;;14.47;97.77
30110;BME280;14965;50.660;13.226;2023-07-20T03:31:16;94599.81;;;14.51;97.84
30110;BME280;14965;50.660;13.226;2023-07-20T03:33:42;94596.41;;;14.56;97.88
30110;BME280;14965;50.660;13.226;2023-07-20T03:36:08;94609.31;;;14.59;97.29
30110;BME280;14965;50.660;13.226;2023-07-20T03:38:34;94609.22;;;14.53;96.66
30110;BME280;14965;50.660;13.226;2023-07-20T03:41:00;94603.06;;;14.49;96.54
30110;BME280;14965;50.660;13.226;2023-07-20T03:43:27;94615.88;;;14.47;96.64
30110;BME280;14965;50.660;13.226;2023-07-20T03:45:54;94612.78;;;14.44;96.76
30110;BME280;14965;50.660;13.226;2023-07-20T03:48:24;94608.28;;;14.47;97.15
30110;BME280;14965;50.660;13.226;2023-07-20T03:50:52;94614.31;;;14.55;97.02
30110;BME280;14965;50.660;13.226;2023-07-20T03:53:18;94608.69;;;14.64;96.75
30110;BME280;14965;50.660;13.226;2023-07-20T03:55:46;94613.44;;;14.73;96.39
30110;BME280;14965;50.660;13.226;2023-07-20T03:58:13;94620.03;;;14.75;95.64
30110;BME280;14965;50.660;13.226;2023-07-20T04:00:39;94608.47;;;14.77;95.62
30110;BME280;14965;50.660;13.226;2023-07-20T04:03:05;94617.25;;;14.84;95.38
30110;BME280;14965;50.660;13.226;2023-07-20T04:05:32;94611.31;;;14.91;95.33
30110;BME280;14965;50.660;13.226;2023-07-20T04:07:58;94617.00;;;14.97;95.17
30110;BME280;14965;50.660;13.226;2023-07-20T04:10:24;94612.31;;;15.03;94.85
30110;BME280;14965;50.660;13.226;2023-07-20T04:12:50;94618.47;;;15.07;94.52
30110;BME280;14965;50.660;13.226;2023-07-20T04:15:16;94626.16;;;15.12;94.17
30110;BME280;14965;50.660;13.226;2023-07-20T04:17:42;94620.41;;;15.16;94.14
30110;BME280;14965;50.660;13.226;2023-07-20T04:20:09;94618.72;;;15.18;93.88
30110;BME280;14965;50.660;13.226;2023-07-20T04:22:36;94616.88;;;15.15;93.70
30110;BME280;14965;50.660;13.226;2023-07-20T04:25:03;94621.94;;;15.17;93.85
30110;BME280;14965;50.660;13.226;2023-07-20T04:27:32;94628.47;;;15.14;93.46
30110;BME280;14965;50.660;13.226;2023-07-20T04:29:58;94613.16;;;15.18;93.87
30110;BME280;14965;50.660;13.226;2023-07-20T04:32:24;94617.97;;;15.33;93.82
30110;BME280;14965;50.660;13.226;2023-07-20T04:34:50;94613.50;;;15.50;92.58
30110;BME280;14965;50.660;13.226;2023-07-20T04:37:16;94612.47;;;15.62;91.58
30110;BME280;14965;50.660;13.226;2023-07-20T04:39:44;94606.19;;;15.77;90.80
30110;BME280;14965;50.660;13.226;2023-07-20T04:42:10;94614.72;;;15.88;89.50
30110;BME280;14965;50.660;13.226;2023-07-20T04:44:36;94613.00;;;15.90;88.84
30110;BME280;14965;50.660;13.226;2023-07-20T04:47:02;94615.13;;;15.81;88.93
30110;BME280;14965;50.660;13.226;2023-07-20T04:49:28;94611.53;;;15.65;89.17
30110;BME280;14965;50.660;13.226;2023-07-20T04:51:54;94615.16;;;15.57;89.86
30110;BME280;14965;50.660;13.226;2023-07-20T04:54:20;94610.72;;;15.50;90.49
30110;BME280;14965;50.660;13.226;2023-07-20T04:56:47;94616.09;;;15.54;90.77
30110;BME280;14965;50.660;13.226;2023-07-20T04:59:13;94619.13;;;15.65;90.61
30110;BME280;14965;50.660;13.226;2023-07-20T05:01:39;94621.44;;;15.66;90.13
30110;BME280;14965;50.660;13.226;2023-07-20T05:04:04;94618.78;;;15.63;89.89
30110;BME280;14965;50.660;13.226;2023-07-20T05:06:30;94619.91;;;15.65;90.07
30110;BME280;14965;50.660;13.226;2023-07-20T05:08:56;94625.28;;;15.69;90.26
30110;BME280;14965;50.660;13.226;2023-07-20T05:11:22;94617.50;;;15.73;90.04
30110;BME280;14965;50.660;13.226;2023-07-20T05:13:49;94624.22;;;15.66;89.73
30110;BME280;14965;50.660;13.226;2023-07-20T05:16:15;94632.34;;;15.55;89.69
30110;BME280;14965;50.660;13.226;2023-07-20T05:18:41;94636.06;;;15.52;90.27
30110;BME280;14965;50.660;13.226;2023-07-20T05:21:07;94626.19;;;15.51;90.51
30110;BME280;14965;50.660;13.226;2023-07-20T05:23:33;94620.91;;;15.53;90.85
30110;BME280;14965;50.660;13.226;2023-07-20T05:25:59;94625.34;;;15.60;90.93
30110;BME280;14965;50.660;13.226;2023-07-20T05:28:26;94624.34;;;15.72;91.32
30110;BME280;14965;50.660;13.226;2023-07-20T05:30:53;94631.16;;;15.86;90.23
30110;BME280;14965;50.660;13.226;2023-07-20T05:33:20;94624.63;;;15.89;90.37
30110;BME280;14965;50.660;13.226;2023-07-20T05:35:46;94620.22;;;15.97;90.28
30110;BME280;14965;50.660;13.226;2023-07-20T05:38:12;94615.59;;;16.09;89.89
30110;BME280;14965;50.660;13.226;2023-07-20T05:40:40;94623.38;;;16.05;89.51
30110;BME280;14965;50.660;13.226;2023-07-20T05:43:06;94622.13;;;15.91;89.79
30110;BME280;14965;50.660;13.226;2023-07-20T05:45:32;94626.53;;;15.83;90.09
30110;BME280;14965;50.660;13.226;2023-07-20T05:47:59;94641.81;;;15.73;90.94
30110;BME280;14965;50.660;13.226;2023-07-20T05:50:25;94629.78;;;15.66;91.30
30110;BME280;14965;50.660;13.226;2023-07-20T05:52:53;94632.28;;;15.64;90.75
30110;BME280;14965;50.660;13.226;2023-07-20T05:55:19;94631.34;;;15.67;90.53
30110;BME280;14965;50.660;13.226;2023-07-20T05:57:45;94631.44;;;15.73;91.09
30110;BME280;14965;50.660;13.226;2023-07-20T06:00:12;94630.34;;;15.71;91.15
30110;BME280;14965;50.660;13.226;2023-07-20T06:02:38;94643.09;;;15.62;91.84
30110;BME280;14965;50.660;13.226;2023-07-20T06:05:07;94646.13;;;15.50;92.30
30110;BME280;14965;50.660;13.226;2023-07-20T06:07:33;94647.16;;;15.37;92.69
30110;BME280;14965;50.660;13.226;2023-07-20T06:09:59;94654.81;;;15.28;93.27
30110;BME280;14965;50.660;13.226;2023-07-20T06:12:25;94647.78;;;15.17;93.52
30110;BME280;14965;50.660;13.226;2023-07-20T06:14:51;94659.59;;;15.03;94.30
30110;BME280;14965;50.660;13.226;2023-07-20T06:17:17;94663.31;;;15.00;94.77
30110;BME280;14965;50.660;13.226;2023-07-20T06:19:48;94668.59;;;14.98;94.28
30110;BME280;14965;50.660;13.226;2023-07-20T06:22:15;94667.41;;;14.90;94.69
30110;BME280;14965;50.660;13.226;2023-07-20T06:24:41;94660.94;;;14.84;95.41
30110;BME280;14965;50.660;13.226;2023-07-20T06:27:07;94655.97;;;14.88;95.49
30110;BME280;14965;50.660;13.226;2023-07-20T06:29:33;94660.00;;;14.87;94.07
30110;BME280;14965;50.660;13.226;2023-07-20T06:31:58;94663.97;;;14.95;94.06
30110;BME280;14965;50.660;13.226;2023-07-20T06:34:24;94660.19;;;15.07;93.85
30110;BME280;14965;50.660;13.226;2023-07-20T06:36:50;94663.63;;;15.26;93.98
30110;BME280;14965;50.660;13.226;2023-07-20T06:39:18;94658.41;;;15.43;93.45
30110;BME280;14965;50.660;13.226;2023-07-20T06:41:44;94660.72;;;15.68;93.03
30110;BME280;14965;50.660;13.226;2023-07-20T06:44:09;94648.06;;;15.97;90.69
30110;BME280;14965;50.660;13.226;2023-07-20T06:46:35;94641.72;;;16.41;89.45
30110;BME280;14965;50.660;13.226;2023-07-20T06:49:01;94632.75;;;17.02;86.06
30110;BME280;14965;50.660;13.226;2023-07-20T06:51:27;94651.88;;;17.29;83.51
30110;BME280;14965;50.660;13.226;2023-07-20T06:53:53;94659.22;;;17.27;83.87
30110;BME280;14965;50.660;13.226;2023-07-20T06:56:20;94662.25;;;17.08;83.68
30110;BME280;14965;50.660;13.226;2023-07-20T06:58:46;94672.22;;;16.95;83.24
30110;BME280;14965;50.660;13.226;2023-07-20T07:01:13;94667.91;;;16.79;83.14
30110;BME280;14965;50.660;13.226;2023-07-20T07:03:39;94664.16;;;16.82;84.12
30110;BME280;14965;50.660;13.226;2023-07-20T07:06:05;94676.94;;;16.88;81.78
30110;BME280;14965;50.660;13.226;2023-07-20T07:08:31;94677.50;;;16.92;81.60
30110;BME280;14965;50.660;13.226;2023-07-20T07:10:57;94661.50;;;17.08;81.72
30110;BME280;14965;50.660;13.226;2023-07-20T07:13:24;94670.63;;;17.08;80.55
30110;BME280;14965;50.660;13.226;2023-07-20T07:15:50;94671.66;;;16.90;79.60
30110;BME280;14965;50.660;13.226;2023-07-20T07:18:16;94673.59;;;16.69;79.42
30110;BME280;14965;50.660;13.226;2023-07-20T07:20:50;94675.72;;;16.45;80.69
30110;BME280;14965;50.660;13.226;2023-07-20T07:23:16;94666.03;;;16.26;82.47
30110;BME280;14965;50.660;13.226;2023-07-20T07:25:42;94676.88;;;16.38;83.37
30110;BME280;14965;50.660;13.226;2023-07-20T07:28:08;94676.59;;;16.51;82.58
30110;BME280;14965;50.660;13.226;2023-07-20T07:30:35;94676.59;;;16.51;82.43
30110;BME280;14965;50.660;13.226;2023-07-20T07:33:01;94665.72;;;16.38;81.56
30110;BME280;14965;50.660;13.226;2023-07-20T07:35:27;94683.22;;;16.24;81.77
30110;BME280;14965;50.660;13.226;2023-07-20T07:37:53;94682.06;;;16.01;81.87
30110;BME280;14965;50.660;13.226;2023-07-20T07:40:19;94684.66;;;15.90;83.14
30110;BME280;14965;50.660;13.226;2023-07-20T07:42:45;94677.81;;;15.91;84.82
30110;BME280;14965;50.660;13.226;2023-07-20T07:45:11;94672.38;;;16.11;83.60
30110;BME280;14965;50.660;13.226;2023-07-20T07:47:38;94675.81;;;16.51;83.58
30110;BME280;14965;50.660;13.226;2023-07-20T07:50:05;94679.66;;;16.68;81.29
30110;BME280;14965;50.660;13.226;2023-07-20T07:52:31;94681.59;;;16.77;81.00
30110;BME280;14965;50.660;13.226;2023-07-20T07:54:57;94681.66;;;16.67;80.07
30110;BME280;14965;50.660;13.226;2023-07-20T07:57:23;94674.84;;;16.54;80.52
30110;BME280;14965;50.660;13.226;2023-07-20T07:59:49;94680.91;;;16.37;82.04
30110;BME280;14965;50.660;13.226;2023-07-20T08:02:15;94690.16;;;16.29;82.89
30110;BME280;14965;50.660;13.226;2023-07-20T08:04:42;94686.03;;;16.09;83.10
30110;BME280;14965;50.660;13.226;2023-07-20T08:07:08;94691.75;;;15.91;84.13
30110;BME280;14965;50.660;13.226;2023-07-20T08:09:34;94696.50;;;15.76;85.61
30110;BME280;14965;50.660;13.226;2023-07-20T08:12:00;94699.53;;;15.63;87.15
30110;BME280;14965;50.660;13.226;2023-07-20T08:14:26;94697.56;;;15.54;88.29
30110;BME280;14965;50.660;13.226;2023-07-20T08:16:52;94698.84;;;15.53;88.81
30110;BME280;14965;50.660;13.226;2023-07-20T08:19:20;94702.19;;;15.57;89.70
30110;BME280;14965;50.660;13.226;2023-07-20T08:21:47;94709.31;;;15.58;89.10
30110;BME280;14965;50.660;13.226;2023-07-20T08:24:13;94711.03;;;15.56;90.09
30110;BME280;14965;50.660;13.226;2023-07-20T08:26:39;94709.84;;;15.48;90.02
30110;BME280;14965;50.660;13.226;2023-07-20T08:29:05;94710.31;;;15.46;91.18
30110;BME280;14965;50.660;13.226;2023-07-20T08:31:31;94715.88;;;15.46;91.51
30110;BME280;14965;50.660;13.226;2023-07-20T08:33:57;94706.91;;;15.51;91.99
30110;BME280;14965;50.660;13.226;2023-07-20T08:36:23;94702.66;;;15.65;92.43
30110;BME280;14965;50.660;13.226;2023-07-20T08:38:50;94708.44;;;15.76;91.66
30110;BME280;14965;50.660;13.226;2023-07-20T08:41:17;94703.66;;;15.91;91.70
30110;BME280;14965;50.660;13.226;2023-07-20T08:43:46;94701.59;;;16.75;90.02
30110;BME280;14965;50.660;13.226;2023-07-20T08:46:12;94691.19;;;17.66;84.16
30110;BME280;14965;50.660;13.226;2023-07-20T08:48:40;94689.81;;;18.23;81.48
30110;BME280;14965;50.660;13.226;2023-07-20T08:51:07;94687.75;;;18.76;78.16
30110;BME280;14965;50.660;13.226;2023-07-20T08:53:34;94689.78;;;19.12;74.40
30110;BME280;14965;50.660;13.226;2023-07-20T08:56:03;94692.88;;;19.14;72.55
30110;BME280;14965;50.660;13.226;2023-07-20T08:58:30;94683.53;;;18.91;74.08
30110;BME280;14965;50.660;13.226;2023-07-20T09:00:58;94679.25;;;18.64;74.87
30110;BME280;14965;50.660;13.226;2023-07-20T09:03:24;94681.69;;;18.83;74.81
30110;BME280;14965;50.660;13.226;2023-07-20T09:05:50;94682.66;;;19.11;76.02
30110;BME280;14965;50.660;13.226;2023-07-20T09:08:16;94681.38;;;19.12;71.82
30110;BME280;14965;50.660;13.226;2023-07-20T09:10:42;94679.69;;;19.26;73.90
30110;BME280;14965;50.660;13.226;2023-07-20T09:13:14;94683.38;;;20.09;71.74
30110;BME280;14965;50.660;13.226;2023-07-20T09:15:46;94678.38;;;20.75;67.10
30110;BME280;14965;50.660;13.226;2023-07-20T09:18:12;94668.66;;;21.09;65.53
30110;BME280;14965;50.660;13.226;2023-07-20T09:20:38;94665.34;;;21.17;62.10
30110;BME280;14965;50.660;13.226;2023-07-20T09:23:05;94673.28;;;20.62;63.07
30110;BME280;14965;50.660;13.226;2023-07-20T09:25:31;94682.03;;;19.87;65.28
30110;BME280;14965;50.660;13.226;2023-07-20T09:28:02;94680.78;;;19.40;66.83
30110;BME280;14965;50.660;13.226;2023-07-20T09:30:29;94670.91;;;19.50;68.95
30110;BME280;14965;50.660;13.226;2023-07-20T09:32:55;94676.91;;;19.75;66.88
30110;BME280;14965;50.660;13.226;2023-07-20T09:35:22;94673.91;;;20.06;66.62
30110;BME280;14965;50.660;13.226;2023-07-20T09:37:51;94675.78;;;20.32;66.26
30110;BME280;14965;50.660;13.226;2023-07-20T09:40:18;94674.47;;;20.16;65.22
30110;BME280;14965;50.660;13.226;2023-07-20T09:42:44;94672.06;;;19.81;65.29
30110;BME280;14965;50.660;13.226;2023-07-20T09:45:10;94680.38;;;19.58;65.47
30110;BME280;14965;50.660;13.226;2023-07-20T09:47:38;94677.03;;;19.54;66.79
30110;BME280;14965;50.660;13.226;2023-07-20T09:50:06;94678.06;;;19.57;65.36
30110;BME280;14965;50.660;13.226;2023-07-20T09:52:35;94677.66;;;19.70;65.20
30110;BME280;14965;50.660;13.226;2023-07-20T09:55:02;94681.22;;;19.81;63.62
30110;BME280;14965;50.660;13.226;2023-07-20T09:57:30;94682.50;;;19.80;64.45
30110;BME280;14965;50.660;13.226;2023-07-20T09:59:57;94686.56;;;19.74;65.14
30110;BME280;14965;50.660;13.226;2023-07-20T10:02:28;94684.03;;;19.81;66.27
30110;BME280;14965;50.660;13.226;2023-07-20T10:05:02;94683.78;;;19.74;63.36
30110;BME280;14965;50.660;13.226;2023-07-20T10:07:30;94687.13;;;19.83;64.07
30110;BME280;14965;50.660;13.226;2023-07-20T10:09:59;94683.88;;;20.07;65.66
30110;BME280;14965;50.660;13.226;2023-07-20T10:12:29;94680.88;;;20.39;63.81
30110;BME280;14965;50.660;13.226;2023-07-20T10:15:07;94680.69;;;20.54;62.98
30110;BME280;14965;50.660;13.226;2023-07-20T10:17:40;94682.72;;;20.59;60.79
30110;BME280;14965;50.660;13.226;2023-07-20T10:20:12;94676.53;;;20.32;61.18
30110;BME280;14965;50.660;13.226;2023-07-20T10:22:39;94681.31;;;20.09;60.78
30110;BME280;14965;50.660;13.226;2023-07-20T10:25:07;94682.59;;;20.08;62.82
30110;BME280;14965;50.660;13.226;2023-07-20T10:27:33;94679.31;;;20.15;62.21
30110;BME280;14965;50.660;13.226;2023-07-20T10:29:59;94674.22;;;20.31;61.37
30110;BME280;14965;50.660;13.226;2023-07-20T10:32:25;94675.56;;;20.52;62.09
30110;BME280;14965;50.660;13.226;2023-07-20T10:34:51;94671.72;;;20.44;62.52
30110;BME280;14965;50.660;13.226;2023-07-20T10:37:51;94668.44;;;20.51;61.62
30110;BME280;14965;50.660;13.226;2023-07-20T10:40:33;94672.50;;;20.50;59.38
30110;BME280;14965;50.660;13.226;2023-07-20T10:43:02;94666.91;;;20.67;58.05
30110;BME280;14965;50.660;13.226;2023-07-20T10:45:42;94667.63;;;21.18;58.66
30110;BME280;14965;50.660;13.226;2023-07-20T10:48:16;94660.19;;;21.43;57.63
30110;BME280;14965;50.660;13.226;2023-07-20T10:50:43;94671.09;;;21.63;55.54
30110;BME280;14965;50.660;13.226;2023-07-20T10:53:23;94663.78;;;22.02;57.31
30110;BME280;14965;50.660;13.226;2023-07-20T10:56:06;94668.50;;;22.29;54.60
30110;BME280;14965;50.660;13.226;2023-07-20T10:58:34;94663.94;;;22.62;51.40
30110;BME280;14965;50.660;13.226;2023-07-20T11:01:04;94657.38;;;22.84;50.47
30110;BME280;14965;50.660;13.226;2023-07-20T11:03:34;94652.28;;;22.82;52.83
30110;BME280;14965;50.660;13.226;2023-07-20T11:06:31;94660.72;;;22.00;52.32
30110;BME280;14965;50.660;13.226;2023-07-20T11:09:13;94663.59;;;20.91;54.44
30110;BME280;14965;50.660;13.226;2023-07-20T11:11:41;94652.59;;;20.48;57.77
30110;BME280;14965;50.660;13.226;2023-07-20T11:14:09;94663.00;;;20.20;58.01
30110;BME280;14965;50.660;13.226;2023-07-20T11:16:38;94661.25;;;20.39;59.27
30110;BME280;14965;50.660;13.226;2023-07-20T11:19:17;94655.19;;;20.57;58.09
30110;BME280;14965;50.660;13.226;2023-07-20T11:21:50;94652.59;;;20.37;55.59
30110;BME280;14965;50.660;13.226;2023-07-20T11:24:16;94644.09;;;19.98;56.38
30110;BME280;14965;50.660;13.226;2023-07-20T11:26:45;94656.56;;;19.91;57.77
30110;BME280;14965;50.660;13.226;2023-07-20T11:29:11;94657.34;;;19.97;58.62
30110;BME280;14965;50.660;13.226;2023-07-20T11:31:39;94655.09;;;20.07;58.70
30110;BME280;14965;50.660;13.226;2023-07-20T11:34:05;94658.66;;;20.07;59.53
30110;BME280;14965;50.660;13.226;2023-07-20T11:36:31;94663.47;;;20.01;58.15
30110;BME280;14965;50.660;13.226;2023-07-20T11:38:58;94651.25;;;20.04;59.74
30110;BME280;14965;50.660;13.226;2023-07-20T11:41:25;94658.63;;;20.02;58.96
30110;BME280;14965;50.660;13.226;2023-07-20T11:43:51;94645.94;;;20.29;59.34
30110;BME280;14965;50.660;13.226;2023-07-20T11:46:17;94646.00;;;20.74;57.35
30110;BME280;14965;50.660;13.226;2023-07-20T11:48:43;94640.59;;;20.93;55.54
30110;BME280;14965;50.660;13.226;2023-07-20T11:51:14;94643.66;;;21.11;55.20
30110;BME280;14965;50.660;13.226;2023-07-20T11:53:40;94644.06;;;21.55;57.06
30110;BME280;14965;50.660;13.226;2023-07-20T11:56:08;94633.69;;;21.91;53.34
30110;BME280;14965;50.660;13.226;2023-07-20T11:58:34;94642.28;;;22.04;54.48
30110;BME280;14965;50.660;13.226;2023-07-20T12:00:59;94636.19;;;22.00;54.95
30110;BME280;14965;50.660;13.226;2023-07-20T12:03:25;94649.00;;;21.90;53.16
30110;BME280;14965;50.660;13.226;2023-07-20T12:05:52;94648.41;;;22.03;54.87
30110;BME280;14965;50.660;13.226;2023-07-20T12:08:18;94648.41;;;22.08;54.46
30110;BME280;14965;50.660;13.226;2023-07-20T12:10:44;94638.47;;;22.02;53.61
30110;BME280;14965;50.660;13.226;2023-07-20T12:13:12;94638.84;;;21.76;51.66
30110;BME280;14965;50.660;13.226;2023-07-20T12:15:38;94645.38;;;21.43;53.43
30110;BME280;14965;50.660;13.226;2023-07-20T12:18:05;94646.41;;;21.28;51.21
30110;BME280;14965;50.660;13.226;2023-07-20T12:20:33;94646.47;;;20.89;52.17
30110;BME280;14965;50.660;13.226;2023-07-20T12:23:01;94642.16;;;20.71;54.20
30110;BME280;14965;50.660;13.226;2023-07-20T12:25:37;94652.88;;;20.50;54.66
30110;BME280;14965;50.660;13.226;2023-07-20T12:28:06;94648.75;;;20.23;54.37
30110;BME280;14965;50.660;13.226;2023-07-20T12:30:33;94648.19;;;20.13;55.79
30110;BME280;14965;50.660;13.226;2023-07-20T12:32:59;94653.28;;;20.04;56.02
30110;BME280;14965;50.660;13.226;2023-07-20T12:35:25;94654.56;;;20.14;58.61
30110;BME280;14965;50.660;13.226;2023-07-20T12:37:51;94654.38;;;20.40;55.57
30110;BME280;14965;50.660;13.226;2023-07-20T12:40:17;94656.44;;;20.51;55.09
30110;BME280;14965;50.660;13.226;2023-07-20T12:42:43;94676.31;;;20.36;53.70
30110;BME280;14965;50.660;13.226;2023-07-20T12:45:09;94696.38;;;19.09;59.98
30110;BME280;14965;50.660;13.226;2023-07-20T12:47:37;94705.25;;;18.45;63.88
30110;BME280;14965;50.660;13.226;2023-07-20T12:50:03;94705.41;;;18.09;65.35